Phoenix, Arizona
Traffic Map
Current Weather Conditions
Phoenix, Arizona
Few Clouds
Few Clouds
88°
Feels Like: 88°
Wind Chill: 88° Ceiling: Unl
Heat Index: 88° Visibility: 10mi
Dew Point: 39° Wind: 0mph
Humidity: 18% Direction: ° ()
Pressure: 29.76in Gusts: 0mph
Raw Report DataKPHX 012051Z 00000KT 10SM FEW060 31/04 A2976 RMK AO2 SLP060 T03110039 58019
Traffic Incident Summary
Active as of:
Severity:
Category:
InformationThere was an issue retrieving the traffic information for this location. Please try a different location or try again shortly.
Advertisements
Track Severe Weather on mobile